sensor_id;sensor_type;location;lat;lon;timestamp;pressure;altitude;pressure_sealevel;temperature;humidity
68891;BME280;55932;48.702;8.884;2023-07-30T00:03:28;95770;;;17.8;68.5
68891;BME280;55932;48.702;8.884;2023-07-30T00:06:00;95760;;;17.8;68.5
68891;BME280;55932;48.702;8.884;2023-07-30T00:08:16;95750;;;17.8;68.5
68891;BME280;55932;48.702;8.884;2023-07-30T00:10:45;95760;;;17.8;68.5
68891;BME280;55932;48.702;8.884;2023-07-30T00:13:15;95770;;;17.7;68.5
68891;BME280;55932;48.702;8.884;2023-07-30T00:15:46;95760;;;17.7;68.5
68891;BME280;55932;48.702;8.884;2023-07-30T00:18:16;95760;;;17.7;68.5
68891;BME280;55932;48.702;8.884;2023-07-30T00:20:47;95760;;;17.7;68.5
68891;BME280;55932;48.702;8.884;2023-07-30T00:28:13;95770;;;17.5;68.5
68891;BME280;55932;48.702;8.884;2023-07-30T00:30:44;95780;;;17.5;68.5
68891;BME280;55932;48.702;8.884;2023-07-30T00:35:52;95790;;;17.6;68.5
68891;BME280;55932;48.702;8.884;2023-07-30T00:40:59;95790;;;17.6;68.5
68891;BME280;55932;48.702;8.884;2023-07-30T00:43:36;95790;;;17.6;68.5
68891;BME280;55932;48.702;8.884;2023-07-30T00:45:55;95790;;;17.6;68.5
68891;BME280;55932;48.702;8.884;2023-07-30T00:48:23;95790;;;17.6;68.5
68891;BME280;55932;48.702;8.884;2023-07-30T00:50:53;95780;;;17.4;68.5
68891;BME280;55932;48.702;8.884;2023-07-30T00:53:22;95780;;;17.3;69
68891;BME280;55932;48.702;8.884;2023-07-30T00:55:48;95780;;;17.2;69
68891;BME280;55932;48.702;8.884;2023-07-30T00:58:23;95780;;;17.1;69
68891;BME280;55932;48.702;8.884;2023-07-30T01:00:53;95790;;;17;69
68891;BME280;55932;48.702;8.884;2023-07-30T01:03:20;95790;;;17;69
68891;BME280;55932;48.702;8.884;2023-07-30T01:08:22;95790;;;17;69
68891;BME280;55932;48.702;8.884;2023-07-30T01:11:01;95790;;;17;69
68891;BME280;55932;48.702;8.884;2023-07-30T01:13:32;95790;;;16.9;69
68891;BME280;55932;48.702;8.884;2023-07-30T01:18:27;95790;;;16.8;69
68891;BME280;55932;48.702;8.884;2023-07-30T01:20:58;95790;;;16.7;69
68891;BME280;55932;48.702;8.884;2023-07-30T01:23:29;95790;;;16.6;69.5
68891;BME280;55932;48.702;8.884;2023-07-30T01:26:08;95800;;;16.5;69.5
68891;BME280;55932;48.702;8.884;2023-07-30T01:28:32;95800;;;16.4;69.5
68891;BME280;55932;48.702;8.884;2023-07-30T01:31:08;95790;;;16.4;69.5
68891;BME280;55932;48.702;8.884;2023-07-30T01:33:33;95800;;;16.4;69.5
68891;BME280;55932;48.702;8.884;2023-07-30T01:36:03;95800;;;16.4;69.5
68891;BME280;55932;48.702;8.884;2023-07-30T01:38:35;95800;;;16.4;69.5
68891;BME280;55932;48.702;8.884;2023-07-30T01:43:36;95800;;;16.5;69.5
68891;BME280;55932;48.702;8.884;2023-07-30T01:46:10;95800;;;16.6;69
68891;BME280;55932;48.702;8.884;2023-07-30T01:48:45;95810;;;16.7;69
68891;BME280;55932;48.702;8.884;2023-07-30T01:51:16;95810;;;16.7;69
68891;BME280;55932;48.702;8.884;2023-07-30T01:56:11;95820;;;16.7;69
68891;BME280;55932;48.702;8.884;2023-07-30T01:58:42;95810;;;16.7;69
68891;BME280;55932;48.702;8.884;2023-07-30T02:01:14;95810;;;16.6;69
68891;BME280;55932;48.702;8.884;2023-07-30T02:03:45;95800;;;16.6;69
68891;BME280;55932;48.702;8.884;2023-07-30T02:06:17;95800;;;16.7;69
68891;BME280;55932;48.702;8.884;2023-07-30T02:08:47;95800;;;16.6;69
68891;BME280;55932;48.702;8.884;2023-07-30T02:11:17;95790;;;16.6;69
68891;BME280;55932;48.702;8.884;2023-07-30T02:13:48;95790;;;16.5;69.5
68891;BME280;55932;48.702;8.884;2023-07-30T02:16:19;95790;;;16.5;69
68891;BME280;55932;48.702;8.884;2023-07-30T02:18:57;95800;;;16.5;69
68891;BME280;55932;48.702;8.884;2023-07-30T02:21:28;95800;;;16.6;69
68891;BME280;55932;48.702;8.884;2023-07-30T02:29:00;95800;;;16.5;69
68891;BME280;55932;48.702;8.884;2023-07-30T02:31:38;95810;;;16.4;69.5
68891;BME280;55932;48.702;8.884;2023-07-30T02:34:01;95810;;;16.4;69.5
68891;BME280;55932;48.702;8.884;2023-07-30T02:36:31;95810;;;16.4;69
68891;BME280;55932;48.702;8.884;2023-07-30T02:39:02;95800;;;16.4;69
68891;BME280;55932;48.702;8.884;2023-07-30T02:43:56;95810;;;16.3;69.5
68891;BME280;55932;48.702;8.884;2023-07-30T02:46:33;95800;;;16.2;69.5
68891;BME280;55932;48.702;8.884;2023-07-30T02:48:58;95810;;;16.1;69.5
68891;BME280;55932;48.702;8.884;2023-07-30T02:51:28;95820;;;16.1;69.5
68891;BME280;55932;48.702;8.884;2023-07-30T02:54:03;95810;;;16.2;69.5
68891;BME280;55932;48.702;8.884;2023-07-30T02:56:30;95810;;;16.2;69.5
68891;BME280;55932;48.702;8.884;2023-07-30T02:59:01;95810;;;16.2;69.5
68891;BME280;55932;48.702;8.884;2023-07-30T03:01:32;95810;;;16.3;69.5
68891;BME280;55932;48.702;8.884;2023-07-30T03:04:03;95810;;;16.3;69.5
68891;BME280;55932;48.702;8.884;2023-07-30T03:06:41;95810;;;16.3;69.5
68891;BME280;55932;48.702;8.884;2023-07-30T03:09:12;95810;;;16.4;69
68891;BME280;55932;48.702;8.884;2023-07-30T03:14:07;95800;;;16.5;69
68891;BME280;55932;48.702;8.884;2023-07-30T03:16:40;95800;;;16.5;69
68891;BME280;55932;48.702;8.884;2023-07-30T03:19:09;95800;;;16.6;69
68891;BME280;55932;48.702;8.884;2023-07-30T03:21:40;95790;;;16.6;69
68891;BME280;55932;48.702;8.884;2023-07-30T03:24:13;95800;;;16.6;69
68891;BME280;55932;48.702;8.884;2023-07-30T03:26:43;95800;;;16.7;68.5
68891;BME280;55932;48.702;8.884;2023-07-30T03:29:18;95810;;;16.7;69
68891;BME280;55932;48.702;8.884;2023-07-30T03:31:50;95810;;;16.6;69
68891;BME280;55932;48.702;8.884;2023-07-30T03:34:22;95810;;;16.7;69
68891;BME280;55932;48.702;8.884;2023-07-30T03:39:17;95810;;;16.7;69
68891;BME280;55932;48.702;8.884;2023-07-30T03:41:48;95820;;;16.7;69
68891;BME280;55932;48.702;8.884;2023-07-30T03:44:19;95820;;;16.7;69
68891;BME280;55932;48.702;8.884;2023-07-30T03:46:50;95830;;;16.7;68.5
68891;BME280;55932;48.702;8.884;2023-07-30T03:49:21;95840;;;16.7;68.5
68891;BME280;55932;48.702;8.884;2023-07-30T03:51:52;95830;;;16.7;68.5
68891;BME280;55932;48.702;8.884;2023-07-30T03:56:54;95830;;;16.5;69
68891;BME280;55932;48.702;8.884;2023-07-30T03:59:26;95830;;;16.5;69
68891;BME280;55932;48.702;8.884;2023-07-30T04:02:02;95840;;;16.5;69
68891;BME280;55932;48.702;8.884;2023-07-30T04:06:57;95840;;;16.5;69
68891;BME280;55932;48.702;8.884;2023-07-30T04:09:36;95840;;;16.5;69
68891;BME280;55932;48.702;8.884;2023-07-30T04:14:36;95830;;;16.5;69
68891;BME280;55932;48.702;8.884;2023-07-30T04:17:07;95840;;;16.4;69
68891;BME280;55932;48.702;8.884;2023-07-30T04:19:28;95840;;;16.3;69.5
68891;BME280;55932;48.702;8.884;2023-07-30T04:21:59;95840;;;16.4;69
68891;BME280;55932;48.702;8.884;2023-07-30T04:24:31;95850;;;16.4;69
68891;BME280;55932;48.702;8.884;2023-07-30T04:27:08;95850;;;16.4;69
68891;BME280;55932;48.702;8.884;2023-07-30T04:32:04;95850;;;16.6;69
68891;BME280;55932;48.702;8.884;2023-07-30T04:34:41;95860;;;16.6;69
68891;BME280;55932;48.702;8.884;2023-07-30T04:37:05;95860;;;16.6;69
68891;BME280;55932;48.702;8.884;2023-07-30T04:39:36;95870;;;16.6;69
68891;BME280;55932;48.702;8.884;2023-07-30T04:42:09;95870;;;16.7;69
68891;BME280;55932;48.702;8.884;2023-07-30T04:44:38;95870;;;16.7;68.5
68891;BME280;55932;48.702;8.884;2023-07-30T04:47:10;95870;;;16.8;68.5
68891;BME280;55932;48.702;8.884;2023-07-30T04:52:11;95880;;;16.8;68.5
68891;BME280;55932;48.702;8.884;2023-07-30T04:54:42;95870;;;16.9;68.5
68891;BME280;55932;48.702;8.884;2023-07-30T04:57:21;95870;;;16.9;68.5
68891;BME280;55932;48.702;8.884;2023-07-30T04:59:50;95870;;;17;68.5
68891;BME280;55932;48.702;8.884;2023-07-30T05:02:16;95880;;;16.9;68.5
68891;BME280;55932;48.702;8.884;2023-07-30T05:04:46;95890;;;16.8;68.5
68891;BME280;55932;48.702;8.884;2023-07-30T05:07:24;95900;;;16.8;69
68891;BME280;55932;48.702;8.884;2023-07-30T05:09:53;95890;;;16.8;68.5
68891;BME280;55932;48.702;8.884;2023-07-30T05:14:53;95890;;;17;68.5
68891;BME280;55932;48.702;8.884;2023-07-30T05:17:24;95890;;;17;68
68891;BME280;55932;48.702;8.884;2023-07-30T05:19:54;95890;;;17.1;68
68891;BME280;55932;48.702;8.884;2023-07-30T05:22:24;95890;;;17.2;68
68891;BME280;55932;48.702;8.884;2023-07-30T05:24:54;95900;;;17.2;68
68891;BME280;55932;48.702;8.884;2023-07-30T05:29:50;95890;;;17.2;68
68891;BME280;55932;48.702;8.884;2023-07-30T05:32:20;95890;;;17.1;68
68891;BME280;55932;48.702;8.884;2023-07-30T05:34:52;95900;;;17.1;68.5
68891;BME280;55932;48.702;8.884;2023-07-30T05:37:23;95900;;;17.1;68
68891;BME280;55932;48.702;8.884;2023-07-30T05:39:53;95900;;;17;68.5
68891;BME280;55932;48.702;8.884;2023-07-30T05:42:24;95900;;;17;68.5
68891;BME280;55932;48.702;8.884;2023-07-30T05:44:50;95890;;;17.1;68.5
68891;BME280;55932;48.702;8.884;2023-07-30T05:47:19;95890;;;17.2;68.5
68891;BME280;55932;48.702;8.884;2023-07-30T05:54:52;95880;;;17.5;68
68891;BME280;55932;48.702;8.884;2023-07-30T05:57:24;95890;;;17.5;68
68891;BME280;55932;48.702;8.884;2023-07-30T05:59:53;95900;;;17.5;68
68891;BME280;55932;48.702;8.884;2023-07-30T06:05:08;95900;;;17.4;68.5
68891;BME280;55932;48.702;8.884;2023-07-30T06:07:39;95890;;;17.2;68.5
68891;BME280;55932;48.702;8.884;2023-07-30T06:10:09;95890;;;17.1;68.5
68891;BME280;55932;48.702;8.884;2023-07-30T06:15:10;95870;;;17.3;68.5
68891;BME280;55932;48.702;8.884;2023-07-30T06:17:34;95880;;;17.4;68.5
68891;BME280;55932;48.702;8.884;2023-07-30T06:20:12;95890;;;17.5;68
68891;BME280;55932;48.702;8.884;2023-07-30T06:22:43;95900;;;17.7;68
68891;BME280;55932;48.702;8.884;2023-07-30T06:30:15;95900;;;18.9;66.5
68891;BME280;55932;48.702;8.884;2023-07-30T06:32:45;95900;;;19;66.5
68891;BME280;55932;48.702;8.884;2023-07-30T06:35:09;95900;;;19.1;66.5
68891;BME280;55932;48.702;8.884;2023-07-30T06:37:41;95910;;;18.9;66.5
68891;BME280;55932;48.702;8.884;2023-07-30T06:40:11;95910;;;18.8;67
68891;BME280;55932;48.702;8.884;2023-07-30T06:45:13;95910;;;18.5;67
68891;BME280;55932;48.702;8.884;2023-07-30T06:47:50;95920;;;18.4;67.5
68891;BME280;55932;48.702;8.884;2023-07-30T06:50:21;95920;;;18.3;67.5
68891;BME280;55932;48.702;8.884;2023-07-30T06:52:45;95930;;;18.3;67.5
68891;BME280;55932;48.702;8.884;2023-07-30T06:55:22;95930;;;18.2;67.5
68891;BME280;55932;48.702;8.884;2023-07-30T07:00:18;95940;;;17.8;67.5
68891;BME280;55932;48.702;8.884;2023-07-30T07:05:26;95960;;;17.5;68
68891;BME280;55932;48.702;8.884;2023-07-30T07:07:56;95960;;;17.4;68
68891;BME280;55932;48.702;8.884;2023-07-30T07:12:50;95970;;;17.3;68
68891;BME280;55932;48.702;8.884;2023-07-30T07:15:22;95970;;;17.4;68
68891;BME280;55932;48.702;8.884;2023-07-30T07:17:52;95960;;;17.4;68
68891;BME280;55932;48.702;8.884;2023-07-30T07:20:23;95940;;;17.4;68
68891;BME280;55932;48.702;8.884;2023-07-30T07:32:52;95970;;;17.7;67.5
68891;BME280;55932;48.702;8.884;2023-07-30T07:35:21;95980;;;17.6;68
68891;BME280;55932;48.702;8.884;2023-07-30T07:37:52;95980;;;17.7;68
68891;BME280;55932;48.702;8.884;2023-07-30T07:40:22;95970;;;17.8;67.5
68891;BME280;55932;48.702;8.884;2023-07-30T07:42:54;95980;;;18.1;67.5
68891;BME280;55932;48.702;8.884;2023-07-30T07:47:55;95970;;;18.4;67.5
68891;BME280;55932;48.702;8.884;2023-07-30T07:55:27;95970;;;18.6;67.5
68891;BME280;55932;48.702;8.884;2023-07-30T07:57:58;95970;;;18.8;67
68891;BME280;55932;48.702;8.884;2023-07-30T08:03:12;95970;;;19;67.5
68891;BME280;55932;48.702;8.884;2023-07-30T08:05:43;95980;;;19.3;67.5
68891;BME280;55932;48.702;8.884;2023-07-30T08:08:12;95970;;;19.8;67.5
68891;BME280;55932;48.702;8.884;2023-07-30T08:13:06;95960;;;22.5;66.5
68891;BME280;55932;48.702;8.884;2023-07-30T08:15:37;95960;;;23.6;65.5
68891;BME280;55932;48.702;8.884;2023-07-30T08:18:16;95970;;;24;64.5
68891;BME280;55932;48.702;8.884;2023-07-30T08:23:10;95960;;;22.5;64.5
68891;BME280;55932;48.702;8.884;2023-07-30T08:25:41;95960;;;21.7;65.5
68891;BME280;55932;48.702;8.884;2023-07-30T08:28:13;95960;;;21.2;66
68891;BME280;55932;48.702;8.884;2023-07-30T08:30:45;95960;;;21;66
68891;BME280;55932;48.702;8.884;2023-07-30T08:33:21;95970;;;21;66.5
68891;BME280;55932;48.702;8.884;2023-07-30T08:35:45;95970;;;21;66.5
68891;BME280;55932;48.702;8.884;2023-07-30T08:40:40;95960;;;21.4;66
68891;BME280;55932;48.702;8.884;2023-07-30T08:48:12;95970;;;20.9;66
68891;BME280;55932;48.702;8.884;2023-07-30T08:50:43;95980;;;20.6;66.5
68891;BME280;55932;48.702;8.884;2023-07-30T08:53:14;95980;;;20.4;66.5
68891;BME280;55932;48.702;8.884;2023-07-30T08:55:47;95980;;;20.4;66.5
68891;BME280;55932;48.702;8.884;2023-07-30T08:58:16;95980;;;20.6;66
68891;BME280;55932;48.702;8.884;2023-07-30T09:01:01;95980;;;20.8;66
68891;BME280;55932;48.702;8.884;2023-07-30T09:03:30;95980;;;20.7;66
68891;BME280;55932;48.702;8.884;2023-07-30T09:06:00;95990;;;20.4;66.5
68891;BME280;55932;48.702;8.884;2023-07-30T09:08:23;96000;;;20.3;66.5
68891;BME280;55932;48.702;8.884;2023-07-30T09:10:54;95990;;;20.3;66
68891;BME280;55932;48.702;8.884;2023-07-30T09:13:25;95990;;;20.7;66
68891;BME280;55932;48.702;8.884;2023-07-30T09:16:08;95990;;;21;66
68891;BME280;55932;48.702;8.884;2023-07-30T09:21:12;96010;;;20.3;66.5
68891;BME280;55932;48.702;8.884;2023-07-30T09:26:05;96010;;;19;68
68891;BME280;55932;48.702;8.884;2023-07-30T09:28:36;96010;;;18.6;68.5
68891;BME280;55932;48.702;8.884;2023-07-30T09:31:07;96020;;;18.4;68.5
68891;BME280;55932;48.702;8.884;2023-07-30T09:36:03;96010;;;18.6;68
68891;BME280;55932;48.702;8.884;2023-07-30T09:38:30;96010;;;19.1;67.5
68891;BME280;55932;48.702;8.884;2023-07-30T09:41:01;96010;;;19.7;66.5
68891;BME280;55932;48.702;8.884;2023-07-30T09:43:39;96010;;;20.2;66
68891;BME280;55932;48.702;8.884;2023-07-30T09:48:35;96000;;;21.5;64.5
68891;BME280;55932;48.702;8.884;2023-07-30T09:53:43;96010;;;21.7;65
68891;BME280;55932;48.702;8.884;2023-07-30T09:56:19;96010;;;21.7;65
68891;BME280;55932;48.702;8.884;2023-07-30T10:01:08;96030;;;22.2;65.5
68891;BME280;55932;48.702;8.884;2023-07-30T10:03:38;96030;;;23.5;65
68891;BME280;55932;48.702;8.884;2023-07-30T10:06:09;96030;;;24.8;64.5
68891;BME280;55932;48.702;8.884;2023-07-30T10:11:05;96020;;;25;63.5
68891;BME280;55932;48.702;8.884;2023-07-30T10:13:34;96020;;;24.4;64
68891;BME280;55932;48.702;8.884;2023-07-30T10:16:09;96030;;;24.1;64.5
68891;BME280;55932;48.702;8.884;2023-07-30T10:26:09;96040;;;23.9;65
68891;BME280;55932;48.702;8.884;2023-07-30T10:36:32;96020;;;23;66
68891;BME280;55932;48.702;8.884;2023-07-30T10:39:11;96040;;;22.5;66.5
68891;BME280;55932;48.702;8.884;2023-07-30T10:41:28;96030;;;23.6;66
68891;BME280;55932;48.702;8.884;2023-07-30T10:44:03;96020;;;25;65
68891;BME280;55932;48.702;8.884;2023-07-30T10:48:49;96030;;;26.4;63
68891;BME280;55932;48.702;8.884;2023-07-30T10:51:20;96030;;;26.6;63
68891;BME280;55932;48.702;8.884;2023-07-30T10:53:52;96030;;;27;62.5
68891;BME280;55932;48.702;8.884;2023-07-30T11:06:33;96040;;;27;63
68891;BME280;55932;48.702;8.884;2023-07-30T11:09:03;96040;;;26.9;62.5
68891;BME280;55932;48.702;8.884;2023-07-30T11:13:56;96040;;;25.9;63.5
68891;BME280;55932;48.702;8.884;2023-07-30T11:16:27;96040;;;25.3;64
68891;BME280;55932;48.702;8.884;2023-07-30T11:18:58;96040;;;24.2;65
68891;BME280;55932;48.702;8.884;2023-07-30T11:21:29;96020;;;24;65.5
68891;BME280;55932;48.702;8.884;2023-07-30T11:24:00;96030;;;25.2;65
68891;BME280;55932;48.702;8.884;2023-07-30T11:26:31;96040;;;24.6;65
68891;BME280;55932;48.702;8.884;2023-07-30T11:31:40;96030;;;23.2;66.5
68891;BME280;55932;48.702;8.884;2023-07-30T11:36:54;96050;;;23.1;66.5
68891;BME280;55932;48.702;8.884;2023-07-30T11:39:11;96040;;;22.8;66.5
68891;BME280;55932;48.702;8.884;2023-07-30T11:41:54;96050;;;22.3;67
68891;BME280;55932;48.702;8.884;2023-07-30T11:44:42;96050;;;21.8;67
68891;BME280;55932;48.702;8.884;2023-07-30T11:46:52;96070;;;21.5;67.5
68891;BME280;55932;48.702;8.884;2023-07-30T11:49:13;96070;;;21.9;67
68891;BME280;55932;48.702;8.884;2023-07-30T11:51:42;96070;;;23.8;65.5
68891;BME280;55932;48.702;8.884;2023-07-30T11:54:20;96060;;;24.4;64
68891;BME280;55932;48.702;8.884;2023-07-30T11:56:36;96050;;;25.3;63
68891;BME280;55932;48.702;8.884;2023-07-30T11:59:15;96060;;;26.9;61.5
68891;BME280;55932;48.702;8.884;2023-07-30T12:06:41;96060;;;25.4;63
68891;BME280;55932;48.702;8.884;2023-07-30T12:09:12;96070;;;23.9;65
68891;BME280;55932;48.702;8.884;2023-07-30T12:14:21;96080;;;23.2;66.5
68891;BME280;55932;48.702;8.884;2023-07-30T12:16:56;96070;;;23.4;66
68891;BME280;55932;48.702;8.884;2023-07-30T12:19:28;96060;;;26.1;62.5
68891;BME280;55932;48.702;8.884;2023-07-30T12:21:43;96070;;;26.4;62
68891;BME280;55932;48.702;8.884;2023-07-30T12:24:21;96070;;;25.1;63.5
68891;BME280;55932;48.702;8.884;2023-07-30T12:26:52;96080;;;24.1;65
68891;BME280;55932;48.702;8.884;2023-07-30T12:31:47;96080;;;22.7;66.5
68891;BME280;55932;48.702;8.884;2023-07-30T12:34:18;96090;;;22.2;67
68891;BME280;55932;48.702;8.884;2023-07-30T12:36:52;96090;;;22.2;67
68891;BME280;55932;48.702;8.884;2023-07-30T12:39:26;96080;;;23.1;65.5
68891;BME280;55932;48.702;8.884;2023-07-30T12:41:58;96080;;;23.9;64.5
68891;BME280;55932;48.702;8.884;2023-07-30T12:44:20;96090;;;24.1;64
68891;BME280;55932;48.702;8.884;2023-07-30T12:46:51;96090;;;24.7;63.5
68891;BME280;55932;48.702;8.884;2023-07-30T12:51:53;96090;;;26.2;62
68891;BME280;55932;48.702;8.884;2023-07-30T12:54:24;96080;;;27.2;60.5
68891;BME280;55932;48.702;8.884;2023-07-30T12:59:33;96080;;;28.8;59
68891;BME280;55932;48.702;8.884;2023-07-30T13:04:28;96090;;;27.2;61.5
68891;BME280;55932;48.702;8.884;2023-07-30T13:06:59;96080;;;25.6;63
68891;BME280;55932;48.702;8.884;2023-07-30T13:09:36;96100;;;24.4;65
68891;BME280;55932;48.702;8.884;2023-07-30T13:12:07;96100;;;23.8;65.5
68891;BME280;55932;48.702;8.884;2023-07-30T13:14:30;96100;;;23.3;66.5
68891;BME280;55932;48.702;8.884;2023-07-30T13:17:02;96110;;;24.5;64.5
68891;BME280;55932;48.702;8.884;2023-07-30T13:19:33;96110;;;26.3;62
68891;BME280;55932;48.702;8.884;2023-07-30T13:22:03;96100;;;25.5;63
68891;BME280;55932;48.702;8.884;2023-07-30T13:24:41;96110;;;25.6;62.5
68891;BME280;55932;48.702;8.884;2023-07-30T13:27:12;96110;;;26.1;62
68891;BME280;55932;48.702;8.884;2023-07-30T13:32:08;96110;;;25.3;63
68891;BME280;55932;48.702;8.884;2023-07-30T13:34:38;96110;;;24.5;64.5
68891;BME280;55932;48.702;8.884;2023-07-30T13:37:09;96130;;;24.8;63.5
68891;BME280;55932;48.702;8.884;2023-07-30T13:39:47;96120;;;26;62
68891;BME280;55932;48.702;8.884;2023-07-30T13:42:11;96110;;;28;58.5
68891;BME280;55932;48.702;8.884;2023-07-30T13:44:42;96120;;;28.9;57
68891;BME280;55932;48.702;8.884;2023-07-30T13:47:13;96120;;;28.4;58
68891;BME280;55932;48.702;8.884;2023-07-30T13:49:44;96120;;;26.4;61
68891;BME280;55932;48.702;8.884;2023-07-30T13:52:15;96120;;;25.8;62
68891;BME280;55932;48.702;8.884;2023-07-30T13:54:55;96120;;;28.1;58.5
68891;BME280;55932;48.702;8.884;2023-07-30T13:57:23;96110;;;29.1;57
68891;BME280;55932;48.702;8.884;2023-07-30T14:04:56;96120;;;27.8;59.5
68891;BME280;55932;48.702;8.884;2023-07-30T14:07:26;96130;;;26.3;61.5
68891;BME280;55932;48.702;8.884;2023-07-30T14:12:22;96140;;;24.2;64.5
68891;BME280;55932;48.702;8.884;2023-07-30T14:14:52;96140;;;25.4;62
68891;BME280;55932;48.702;8.884;2023-07-30T14:17:23;96140;;;26.2;60.5
68891;BME280;55932;48.702;8.884;2023-07-30T14:20:00;96140;;;26.4;60
68891;BME280;55932;48.702;8.884;2023-07-30T14:24:49;96140;;;26.4;60
68891;BME280;55932;48.702;8.884;2023-07-30T14:27:20;96150;;;27.2;59
68891;BME280;55932;48.702;8.884;2023-07-30T14:29:50;96140;;;27.6;58
68891;BME280;55932;48.702;8.884;2023-07-30T14:32:22;96140;;;28.4;56.5
68891;BME280;55932;48.702;8.884;2023-07-30T14:37:23;96160;;;28;57.5
68891;BME280;55932;48.702;8.884;2023-07-30T14:39:53;96160;;;26.8;59.5
68891;BME280;55932;48.702;8.884;2023-07-30T14:47:26;96160;;;27.4;58
68891;BME280;55932;48.702;8.884;2023-07-30T14:49:56;96170;;;25;62
68891;BME280;55932;48.702;8.884;2023-07-30T14:52:54;96160;;;26.2;60
68891;BME280;55932;48.702;8.884;2023-07-30T14:55:14;96160;;;26.6;59
68891;BME280;55932;48.702;8.884;2023-07-30T15:00:05;96170;;;26;60
68891;BME280;55932;48.702;8.884;2023-07-30T15:02:36;96180;;;25.7;60
68891;BME280;55932;48.702;8.884;2023-07-30T15:05:14;96170;;;26.4;59
68891;BME280;55932;48.702;8.884;2023-07-30T15:07:45;96170;;;26.5;58.5
68891;BME280;55932;48.702;8.884;2023-07-30T15:12:41;96180;;;27.6;57
68891;BME280;55932;48.702;8.884;2023-07-30T15:15:11;96190;;;27.6;57
68891;BME280;55932;48.702;8.884;2023-07-30T15:20:19;96190;;;27.4;57
68891;BME280;55932;48.702;8.884;2023-07-30T15:22:49;96180;;;27;57
68891;BME280;55932;48.702;8.884;2023-07-30T15:25:13;96180;;;27;57
68891;BME280;55932;48.702;8.884;2023-07-30T15:27:44;96180;;;26.9;57
68891;BME280;55932;48.702;8.884;2023-07-30T15:30:15;96190;;;26.7;57.5
68891;BME280;55932;48.702;8.884;2023-07-30T15:32:46;96180;;;26.3;58.5
68891;BME280;55932;48.702;8.884;2023-07-30T15:35:23;96180;;;26.2;59
68891;BME280;55932;48.702;8.884;2023-07-30T15:37:59;96180;;;26.3;58.5
68891;BME280;55932;48.702;8.884;2023-07-30T15:40:37;96190;;;26.3;59.5
68891;BME280;55932;48.702;8.884;2023-07-30T15:45:17;96180;;;27;57.5
68891;BME280;55932;48.702;8.884;2023-07-30T15:47:48;96180;;;26.9;57.5
68891;BME280;55932;48.702;8.884;2023-07-30T15:50:21;96180;;;26.9;57.5
68891;BME280;55932;48.702;8.884;2023-07-30T15:52:50;96190;;;27.4;56.5
68891;BME280;55932;48.702;8.884;2023-07-30T15:55:21;96180;;;27.7;56
68891;BME280;55932;48.702;8.884;2023-07-30T16:00:16;96180;;;28;55
68891;BME280;55932;48.702;8.884;2023-07-30T16:02:47;96190;;;28.1;54.5
68891;BME280;55932;48.702;8.884;2023-07-30T16:05:17;96190;;;27.8;55
68891;BME280;55932;48.702;8.884;2023-07-30T16:07:49;96180;;;27.5;55
68891;BME280;55932;48.702;8.884;2023-07-30T16:10:19;96170;;;26.9;56.5
68891;BME280;55932;48.702;8.884;2023-07-30T16:12:50;96180;;;25.7;58
68891;BME280;55932;48.702;8.884;2023-07-30T16:15:28;96180;;;24.7;60
68891;BME280;55932;48.702;8.884;2023-07-30T16:17:59;96190;;;24.5;60
68891;BME280;55932;48.702;8.884;2023-07-30T16:20:29;96190;;;26.1;57
68891;BME280;55932;48.702;8.884;2023-07-30T16:23:00;96190;;;26.5;56.5
68891;BME280;55932;48.702;8.884;2023-07-30T16:27:55;96190;;;26;57.5
68891;BME280;55932;48.702;8.884;2023-07-30T16:30:26;96190;;;26.1;57
68891;BME280;55932;48.702;8.884;2023-07-30T16:32:57;96200;;;25.1;59
68891;BME280;55932;48.702;8.884;2023-07-30T16:35:28;96200;;;23.4;62
68891;BME280;55932;48.702;8.884;2023-07-30T16:37:58;96200;;;22.2;64
68891;BME280;55932;48.702;8.884;2023-07-30T16:40:34;96200;;;22;64
68891;BME280;55932;48.702;8.884;2023-07-30T16:43:00;96210;;;22.4;63.5
68891;BME280;55932;48.702;8.884;2023-07-30T16:45:31;96200;;;21.9;64.5
68891;BME280;55932;48.702;8.884;2023-07-30T16:48:02;96210;;;21.7;65
68891;BME280;55932;48.702;8.884;2023-07-30T16:55:47;96220;;;21.4;65
68891;BME280;55932;48.702;8.884;2023-07-30T17:00:42;96210;;;22;64
68891;BME280;55932;48.702;8.884;2023-07-30T17:03:21;96210;;;22.1;64.5
68891;BME280;55932;48.702;8.884;2023-07-30T17:08:21;96210;;;22.1;65
68891;BME280;55932;48.702;8.884;2023-07-30T17:10:51;96220;;;21.9;65.5
68891;BME280;55932;48.702;8.884;2023-07-30T17:13:22;96220;;;21.5;66
68891;BME280;55932;48.702;8.884;2023-07-30T17:18:16;96230;;;20.8;67
68891;BME280;55932;48.702;8.884;2023-07-30T17:20:55;96230;;;20.5;67.5
68891;BME280;55932;48.702;8.884;2023-07-30T17:23:25;96230;;;20.3;67.5
68891;BME280;55932;48.702;8.884;2023-07-30T17:28:12;96240;;;20.3;67.5
68891;BME280;55932;48.702;8.884;2023-07-30T17:30:43;96230;;;20.2;67.5
68891;BME280;55932;48.702;8.884;2023-07-30T17:33:14;96230;;;20;67.5
68891;BME280;55932;48.702;8.884;2023-07-30T17:35:45;96240;;;19.9;68
68891;BME280;55932;48.702;8.884;2023-07-30T17:40:50;96230;;;19.7;68
68891;BME280;55932;48.702;8.884;2023-07-30T17:43:17;96230;;;19.6;68
68891;BME280;55932;48.702;8.884;2023-07-30T17:45:48;96240;;;19.5;68.5
68891;BME280;55932;48.702;8.884;2023-07-30T17:48:18;96240;;;19.4;68.5
68891;BME280;55932;48.702;8.884;2023-07-30T17:50:49;96240;;;19.3;68.5
68891;BME280;55932;48.702;8.884;2023-07-30T17:53:20;96240;;;19.2;68.5
68891;BME280;55932;48.702;8.884;2023-07-30T18:00:52;96240;;;18.9;69
68891;BME280;55932;48.702;8.884;2023-07-30T18:08:39;96250;;;18.6;69
68891;BME280;55932;48.702;8.884;2023-07-30T18:11:09;96250;;;18.5;69
68891;BME280;55932;48.702;8.884;2023-07-30T18:13:33;96250;;;18.5;69
68891;BME280;55932;48.702;8.884;2023-07-30T18:18:34;96260;;;18.4;69
68891;BME280;55932;48.702;8.884;2023-07-30T18:21:05;96250;;;18.4;69
68891;BME280;55932;48.702;8.884;2023-07-30T18:23:36;96260;;;18.3;69
68891;BME280;55932;48.702;8.884;2023-07-30T18:26:07;96250;;;18.2;69.5
68891;BME280;55932;48.702;8.884;2023-07-30T18:28:45;96250;;;18.2;69.5
68891;BME280;55932;48.702;8.884;2023-07-30T18:31:16;96250;;;18.1;69.5
68891;BME280;55932;48.702;8.884;2023-07-30T18:41:13;96250;;;17.6;70
68891;BME280;55932;48.702;8.884;2023-07-30T18:43:44;96250;;;17.5;70